sensor_id;sensor_type;location;lat;lon;timestamp;P1;durP1;ratioP1;P2;durP2;ratioP2
16766;SDS011;8501;49.926;8.404;2023-07-29T00:01:08;11.32;;;6.57;;
16766;SDS011;8501;49.926;8.404;2023-07-29T00:03:33;8.63;;;6.78;;
16766;SDS011;8501;49.926;8.404;2023-07-29T00:05:59;9.23;;;7.03;;
16766;SDS011;8501;49.926;8.404;2023-07-29T00:08:24;10.15;;;7.05;;
16766;SDS011;8501;49.926;8.404;2023-07-29T00:10:50;8.80;;;7.25;;
16766;SDS011;8501;49.926;8.404;2023-07-29T00:13:15;11.00;;;6.85;;
16766;SDS011;8501;49.926;8.404;2023-07-29T00:15:41;8.73;;;6.28;;
16766;SDS011;8501;49.926;8.404;2023-07-29T00:18:06;10.35;;;6.65;;
16766;SDS011;8501;49.926;8.404;2023-07-29T00:20:32;10.02;;;6.70;;
16766;SDS011;8501;49.926;8.404;2023-07-29T00:22:57;7.88;;;6.15;;
16766;SDS011;8501;49.926;8.404;2023-07-29T00:25:24;7.90;;;6.28;;
16766;SDS011;8501;49.926;8.404;2023-07-29T00:27:49;7.97;;;6.70;;
16766;SDS011;8501;49.926;8.404;2023-07-29T00:30:15;9.50;;;7.18;;
16766;SDS011;8501;49.926;8.404;2023-07-29T00:32:40;9.77;;;7.13;;
16766;SDS011;8501;49.926;8.404;2023-07-29T00:35:06;9.93;;;7.22;;
16766;SDS011;8501;49.926;8.404;2023-07-29T00:37:32;11.43;;;8.55;;
16766;SDS011;8501;49.926;8.404;2023-07-29T00:39:58;11.88;;;9.32;;
16766;SDS011;8501;49.926;8.404;2023-07-29T00:42:23;12.95;;;9.77;;
16766;SDS011;8501;49.926;8.404;2023-07-29T00:44:49;13.35;;;9.75;;
16766;SDS011;8501;49.926;8.404;2023-07-29T00:47:15;12.57;;;9.55;;
16766;SDS011;8501;49.926;8.404;2023-07-29T00:49:42;14.25;;;9.77;;
16766;SDS011;8501;49.926;8.404;2023-07-29T00:52:09;14.07;;;9.50;;
16766;SDS011;8501;49.926;8.404;2023-07-29T00:54:37;13.60;;;9.35;;
16766;SDS011;8501;49.926;8.404;2023-07-29T00:57:06;11.13;;;8.93;;
16766;SDS011;8501;49.926;8.404;2023-07-29T00:59:34;13.77;;;9.23;;
16766;SDS011;8501;49.926;8.404;2023-07-29T01:02:00;11.02;;;8.70;;
16766;SDS011;8501;49.926;8.404;2023-07-29T01:04:27;11.48;;;8.73;;
16766;SDS011;8501;49.926;8.404;2023-07-29T01:07:00;12.65;;;8.98;;
16766;SDS011;8501;49.926;8.404;2023-07-29T01:09:31;13.68;;;9.20;;
16766;SDS011;8501;49.926;8.404;2023-07-29T01:12:21;13.02;;;10.27;;
16766;SDS011;8501;49.926;8.404;2023-07-29T01:17:42;13.68;;;10.13;;
16766;SDS011;8501;49.926;8.404;2023-07-29T01:20:19;15.55;;;10.10;;
16766;SDS011;8501;49.926;8.404;2023-07-29T01:22:45;14.98;;;9.70;;
16766;SDS011;8501;49.926;8.404;2023-07-29T01:25:12;16.00;;;9.50;;
16766;SDS011;8501;49.926;8.404;2023-07-29T01:27:38;12.35;;;9.50;;
16766;SDS011;8501;49.926;8.404;2023-07-29T01:30:04;13.52;;;10.18;;
16766;SDS011;8501;49.926;8.404;2023-07-29T01:37:42;12.48;;;9.00;;
16766;SDS011;8501;49.926;8.404;2023-07-29T01:40:13;13.38;;;9.35;;
16766;SDS011;8501;49.926;8.404;2023-07-29T01:42:40;14.05;;;9.52;;
16766;SDS011;8501;49.926;8.404;2023-07-29T01:45:06;13.98;;;10.07;;
16766;SDS011;8501;49.926;8.404;2023-07-29T01:47:31;12.45;;;9.77;;
16766;SDS011;8501;49.926;8.404;2023-07-29T01:49:57;12.68;;;9.95;;
16766;SDS011;8501;49.926;8.404;2023-07-29T01:52:23;12.43;;;10.13;;
16766;SDS011;8501;49.926;8.404;2023-07-29T01:54:48;11.82;;;9.50;;
16766;SDS011;8501;49.926;8.404;2023-07-29T01:57:14;13.00;;;9.38;;
16766;SDS011;8501;49.926;8.404;2023-07-29T01:59:39;16.80;;;9.77;;
16766;SDS011;8501;49.926;8.404;2023-07-29T02:02:05;15.35;;;10.18;;
16766;SDS011;8501;49.926;8.404;2023-07-29T02:04:31;16.38;;;10.10;;
16766;SDS011;8501;49.926;8.404;2023-07-29T02:06:56;13.30;;;10.25;;
16766;SDS011;8501;49.926;8.404;2023-07-29T02:09:22;13.68;;;9.68;;
16766;SDS011;8501;49.926;8.404;2023-07-29T02:11:47;13.68;;;9.90;;
16766;SDS011;8501;49.926;8.404;2023-07-29T02:14:13;13.43;;;9.27;;
16766;SDS011;8501;49.926;8.404;2023-07-29T02:16:39;14.05;;;9.70;;
16766;SDS011;8501;49.926;8.404;2023-07-29T02:19:04;14.75;;;10.20;;
16766;SDS011;8501;49.926;8.404;2023-07-29T02:21:30;16.40;;;9.63;;
16766;SDS011;8501;49.926;8.404;2023-07-29T02:23:55;12.75;;;9.38;;
16766;SDS011;8501;49.926;8.404;2023-07-29T02:26:22;12.27;;;9.25;;
16766;SDS011;8501;49.926;8.404;2023-07-29T02:28:47;11.63;;;9.32;;
16766;SDS011;8501;49.926;8.404;2023-07-29T02:31:17;11.05;;;8.07;;
16766;SDS011;8501;49.926;8.404;2023-07-29T02:33:45;11.23;;;6.53;;
16766;SDS011;8501;49.926;8.404;2023-07-29T02:36:11;10.80;;;6.68;;
16766;SDS011;8501;49.926;8.404;2023-07-29T02:38:37;9.18;;;6.32;;
16766;SDS011;8501;49.926;8.404;2023-07-29T02:41:03;8.70;;;6.63;;
16766;SDS011;8501;49.926;8.404;2023-07-29T02:43:29;6.40;;;5.45;;
16766;SDS011;8501;49.926;8.404;2023-07-29T02:45:54;8.45;;;5.30;;
16766;SDS011;8501;49.926;8.404;2023-07-29T02:48:20;6.75;;;5.30;;
16766;SDS011;8501;49.926;8.404;2023-07-29T02:50:45;6.10;;;5.07;;
16766;SDS011;8501;49.926;8.404;2023-07-29T02:53:11;6.97;;;5.55;;
16766;SDS011;8501;49.926;8.404;2023-07-29T02:55:40;7.60;;;5.65;;
16766;SDS011;8501;49.926;8.404;2023-07-29T02:58:06;8.30;;;5.50;;
16766;SDS011;8501;49.926;8.404;2023-07-29T03:00:32;7.95;;;5.57;;
16766;SDS011;8501;49.926;8.404;2023-07-29T03:02:58;10.00;;;5.75;;
16766;SDS011;8501;49.926;8.404;2023-07-29T03:05:23;6.45;;;5.80;;
16766;SDS011;8501;49.926;8.404;2023-07-29T03:07:49;8.43;;;5.68;;
16766;SDS011;8501;49.926;8.404;2023-07-29T03:10:15;8.02;;;6.00;;
16766;SDS011;8501;49.926;8.404;2023-07-29T03:12:40;9.35;;;6.40;;
16766;SDS011;8501;49.926;8.404;2023-07-29T03:15:06;7.35;;;6.20;;
16766;SDS011;8501;49.926;8.404;2023-07-29T03:17:32;9.60;;;6.50;;
16766;SDS011;8501;49.926;8.404;2023-07-29T03:19:57;8.10;;;6.60;;
16766;SDS011;8501;49.926;8.404;2023-07-29T03:22:23;8.48;;;6.57;;
16766;SDS011;8501;49.926;8.404;2023-07-29T03:24:48;7.72;;;6.28;;
16766;SDS011;8501;49.926;8.404;2023-07-29T03:27:14;7.93;;;6.47;;
16766;SDS011;8501;49.926;8.404;2023-07-29T03:29:41;9.20;;;6.68;;
16766;SDS011;8501;49.926;8.404;2023-07-29T03:32:06;9.85;;;6.97;;
16766;SDS011;8501;49.926;8.404;2023-07-29T03:34:32;9.90;;;7.13;;
16766;SDS011;8501;49.926;8.404;2023-07-29T03:36:58;8.20;;;7.15;;
16766;SDS011;8501;49.926;8.404;2023-07-29T03:39:25;9.27;;;7.35;;
16766;SDS011;8501;49.926;8.404;2023-07-29T03:41:51;9.52;;;7.35;;
16766;SDS011;8501;49.926;8.404;2023-07-29T03:44:17;9.38;;;6.78;;
16766;SDS011;8501;49.926;8.404;2023-07-29T03:46:43;10.18;;;7.10;;
16766;SDS011;8501;49.926;8.404;2023-07-29T03:49:09;8.60;;;7.28;;
16766;SDS011;8501;49.926;8.404;2023-07-29T03:51:35;10.60;;;7.20;;
16766;SDS011;8501;49.926;8.404;2023-07-29T03:54:00;8.20;;;7.32;;
16766;SDS011;8501;49.926;8.404;2023-07-29T03:56:26;11.40;;;7.18;;
16766;SDS011;8501;49.926;8.404;2023-07-29T03:58:52;10.07;;;7.38;;
16766;SDS011;8501;49.926;8.404;2023-07-29T04:01:18;8.30;;;6.85;;
16766;SDS011;8501;49.926;8.404;2023-07-29T04:03:47;9.23;;;7.68;;
16766;SDS011;8501;49.926;8.404;2023-07-29T04:06:12;10.05;;;6.95;;
16766;SDS011;8501;49.926;8.404;2023-07-29T04:08:38;8.15;;;7.13;;
16766;SDS011;8501;49.926;8.404;2023-07-29T04:11:03;9.45;;;7.35;;
16766;SDS011;8501;49.926;8.404;2023-07-29T04:13:29;9.27;;;6.68;;
16766;SDS011;8501;49.926;8.404;2023-07-29T04:15:54;9.07;;;6.50;;
16766;SDS011;8501;49.926;8.404;2023-07-29T04:18:20;7.90;;;6.60;;
16766;SDS011;8501;49.926;8.404;2023-07-29T04:20:46;7.00;;;6.30;;
16766;SDS011;8501;49.926;8.404;2023-07-29T04:23:12;7.80;;;6.30;;
16766;SDS011;8501;49.926;8.404;2023-07-29T04:25:37;8.10;;;6.38;;
16766;SDS011;8501;49.926;8.404;2023-07-29T04:28:03;7.68;;;6.13;;
16766;SDS011;8501;49.926;8.404;2023-07-29T04:30:30;8.77;;;6.88;;
16766;SDS011;8501;49.926;8.404;2023-07-29T04:32:55;8.80;;;6.35;;
16766;SDS011;8501;49.926;8.404;2023-07-29T04:35:21;9.32;;;6.90;;
16766;SDS011;8501;49.926;8.404;2023-07-29T04:37:46;9.52;;;6.85;;
16766;SDS011;8501;49.926;8.404;2023-07-29T04:40:13;8.18;;;6.60;;
16766;SDS011;8501;49.926;8.404;2023-07-29T04:42:38;8.60;;;6.55;;
16766;SDS011;8501;49.926;8.404;2023-07-29T04:45:04;7.47;;;6.50;;
16766;SDS011;8501;49.926;8.404;2023-07-29T04:47:30;7.20;;;6.47;;
16766;SDS011;8501;49.926;8.404;2023-07-29T04:49:56;7.47;;;6.28;;
16766;SDS011;8501;49.926;8.404;2023-07-29T04:52:21;8.05;;;6.68;;
16766;SDS011;8501;49.926;8.404;2023-07-29T04:54:47;9.15;;;6.35;;
16766;SDS011;8501;49.926;8.404;2023-07-29T04:57:12;9.18;;;6.72;;
16766;SDS011;8501;49.926;8.404;2023-07-29T04:59:38;10.15;;;7.22;;
16766;SDS011;8501;49.926;8.404;2023-07-29T05:02:03;8.43;;;7.07;;
16766;SDS011;8501;49.926;8.404;2023-07-29T05:04:29;8.57;;;7.28;;
16766;SDS011;8501;49.926;8.404;2023-07-29T05:06:55;8.48;;;7.15;;
16766;SDS011;8501;49.926;8.404;2023-07-29T05:09:20;8.65;;;7.32;;
16766;SDS011;8501;49.926;8.404;2023-07-29T05:11:46;8.30;;;6.80;;
16766;SDS011;8501;49.926;8.404;2023-07-29T05:14:16;8.63;;;6.70;;
16766;SDS011;8501;49.926;8.404;2023-07-29T05:16:42;8.55;;;7.47;;
16766;SDS011;8501;49.926;8.404;2023-07-29T05:19:08;10.77;;;7.72;;
16766;SDS011;8501;49.926;8.404;2023-07-29T05:21:34;8.77;;;7.22;;
16766;SDS011;8501;49.926;8.404;2023-07-29T05:23:59;8.10;;;6.88;;
16766;SDS011;8501;49.926;8.404;2023-07-29T05:26:25;7.40;;;6.60;;
16766;SDS011;8501;49.926;8.404;2023-07-29T05:28:51;8.93;;;6.50;;
16766;SDS011;8501;49.926;8.404;2023-07-29T05:31:16;7.68;;;6.13;;
16766;SDS011;8501;49.926;8.404;2023-07-29T05:33:42;6.88;;;6.18;;
16766;SDS011;8501;49.926;8.404;2023-07-29T05:36:08;7.88;;;6.57;;
16766;SDS011;8501;49.926;8.404;2023-07-29T05:38:34;8.70;;;6.22;;
16766;SDS011;8501;49.926;8.404;2023-07-29T05:40:59;7.65;;;6.25;;
16766;SDS011;8501;49.926;8.404;2023-07-29T05:43:26;10.77;;;6.28;;
16766;SDS011;8501;49.926;8.404;2023-07-29T05:45:51;6.75;;;6.03;;
16766;SDS011;8501;49.926;8.404;2023-07-29T05:48:19;7.57;;;6.38;;
16766;SDS011;8501;49.926;8.404;2023-07-29T05:50:45;6.97;;;5.72;;
16766;SDS011;8501;49.926;8.404;2023-07-29T05:53:10;8.00;;;6.15;;
16766;SDS011;8501;49.926;8.404;2023-07-29T05:55:36;6.88;;;6.18;;
16766;SDS011;8501;49.926;8.404;2023-07-29T05:58:01;7.20;;;6.22;;
16766;SDS011;8501;49.926;8.404;2023-07-29T06:00:27;9.82;;;6.50;;
16766;SDS011;8501;49.926;8.404;2023-07-29T06:02:52;7.00;;;5.30;;
16766;SDS011;8501;49.926;8.404;2023-07-29T06:05:18;8.18;;;6.55;;
16766;SDS011;8501;49.926;8.404;2023-07-29T06:07:43;7.07;;;6.30;;
16766;SDS011;8501;49.926;8.404;2023-07-29T06:10:10;7.30;;;6.35;;
16766;SDS011;8501;49.926;8.404;2023-07-29T06:12:42;8.80;;;6.63;;
16766;SDS011;8501;49.926;8.404;2023-07-29T06:15:08;9.48;;;6.88;;
16766;SDS011;8501;49.926;8.404;2023-07-29T06:17:34;8.23;;;6.55;;
16766;SDS011;8501;49.926;8.404;2023-07-29T06:19:59;9.27;;;6.53;;
16766;SDS011;8501;49.926;8.404;2023-07-29T06:22:25;7.72;;;6.55;;
16766;SDS011;8501;49.926;8.404;2023-07-29T06:24:50;8.10;;;5.90;;
16766;SDS011;8501;49.926;8.404;2023-07-29T06:27:16;7.90;;;5.75;;
16766;SDS011;8501;49.926;8.404;2023-07-29T06:29:41;7.40;;;5.90;;
16766;SDS011;8501;49.926;8.404;2023-07-29T06:32:07;6.95;;;5.15;;
16766;SDS011;8501;49.926;8.404;2023-07-29T06:34:32;6.90;;;5.18;;
16766;SDS011;8501;49.926;8.404;2023-07-29T06:36:58;6.72;;;5.43;;
16766;SDS011;8501;49.926;8.404;2023-07-29T06:39:23;8.32;;;5.25;;
16766;SDS011;8501;49.926;8.404;2023-07-29T06:41:49;7.03;;;5.30;;
16766;SDS011;8501;49.926;8.404;2023-07-29T06:44:15;9.07;;;5.60;;
16766;SDS011;8501;49.926;8.404;2023-07-29T06:46:40;8.98;;;7.63;;
16766;SDS011;8501;49.926;8.404;2023-07-29T06:49:06;7.75;;;6.30;;
16766;SDS011;8501;49.926;8.404;2023-07-29T06:51:31;7.03;;;5.60;;
16766;SDS011;8501;49.926;8.404;2023-07-29T06:53:59;7.60;;;5.72;;
16766;SDS011;8501;49.926;8.404;2023-07-29T06:56:25;7.05;;;5.50;;
16766;SDS011;8501;49.926;8.404;2023-07-29T06:58:51;7.40;;;6.55;;
16766;SDS011;8501;49.926;8.404;2023-07-29T07:01:16;8.85;;;6.53;;
16766;SDS011;8501;49.926;8.404;2023-07-29T07:03:42;8.35;;;6.50;;
16766;SDS011;8501;49.926;8.404;2023-07-29T07:06:07;7.00;;;6.30;;
16766;SDS011;8501;49.926;8.404;2023-07-29T07:08:33;8.02;;;6.35;;
16766;SDS011;8501;49.926;8.404;2023-07-29T07:10:58;6.68;;;5.88;;
16766;SDS011;8501;49.926;8.404;2023-07-29T07:13:24;6.88;;;5.72;;
16766;SDS011;8501;49.926;8.404;2023-07-29T07:15:49;6.85;;;5.50;;
16766;SDS011;8501;49.926;8.404;2023-07-29T07:18:15;8.32;;;6.07;;
16766;SDS011;8501;49.926;8.404;2023-07-29T07:20:40;7.28;;;5.68;;
16766;SDS011;8501;49.926;8.404;2023-07-29T07:23:06;9.18;;;5.43;;
16766;SDS011;8501;49.926;8.404;2023-07-29T07:25:35;7.20;;;5.50;;
16766;SDS011;8501;49.926;8.404;2023-07-29T07:28:01;6.88;;;5.75;;
16766;SDS011;8501;49.926;8.404;2023-07-29T07:30:27;6.57;;;5.60;;
16766;SDS011;8501;49.926;8.404;2023-07-29T07:32:52;8.30;;;5.57;;
16766;SDS011;8501;49.926;8.404;2023-07-29T07:35:18;6.78;;;5.32;;
16766;SDS011;8501;49.926;8.404;2023-07-29T07:37:43;7.18;;;5.85;;
16766;SDS011;8501;49.926;8.404;2023-07-29T07:40:09;6.32;;;5.18;;
16766;SDS011;8501;49.926;8.404;2023-07-29T07:42:36;6.75;;;5.25;;
16766;SDS011;8501;49.926;8.404;2023-07-29T07:45:01;7.35;;;5.38;;
16766;SDS011;8501;49.926;8.404;2023-07-29T07:47:27;4.10;;;3.70;;
16766;SDS011;8501;49.926;8.404;2023-07-29T07:49:52;5.47;;;4.05;;
16766;SDS011;8501;49.926;8.404;2023-07-29T07:52:19;5.88;;;3.40;;
16766;SDS011;8501;49.926;8.404;2023-07-29T07:54:45;2.58;;;2.38;;
16766;SDS011;8501;49.926;8.404;2023-07-29T07:57:10;2.90;;;2.22;;
16766;SDS011;8501;49.926;8.404;2023-07-29T07:59:36;3.13;;;2.42;;
16766;SDS011;8501;49.926;8.404;2023-07-29T08:02:01;2.35;;;2.15;;
16766;SDS011;8501;49.926;8.404;2023-07-29T08:04:27;2.97;;;2.13;;
16766;SDS011;8501;49.926;8.404;2023-07-29T08:06:52;3.50;;;1.92;;
16766;SDS011;8501;49.926;8.404;2023-07-29T08:09:18;1.65;;;1.45;;
16766;SDS011;8501;49.926;8.404;2023-07-29T08:11:43;2.80;;;1.52;;
16766;SDS011;8501;49.926;8.404;2023-07-29T08:14:09;2.00;;;1.80;;
16766;SDS011;8501;49.926;8.404;2023-07-29T08:16:34;1.90;;;1.70;;
16766;SDS011;8501;49.926;8.404;2023-07-29T08:19:00;2.10;;;1.35;;
16766;SDS011;8501;49.926;8.404;2023-07-29T08:21:26;2.05;;;1.50;;
16766;SDS011;8501;49.926;8.404;2023-07-29T08:23:52;1.38;;;1.27;;
16766;SDS011;8501;49.926;8.404;2023-07-29T08:26:17;2.88;;;1.50;;
16766;SDS011;8501;49.926;8.404;2023-07-29T08:28:43;1.88;;;1.38;;
16766;SDS011;8501;49.926;8.404;2023-07-29T08:31:09;1.65;;;1.55;;
16766;SDS011;8501;49.926;8.404;2023-07-29T08:33:34;2.00;;;1.25;;
16766;SDS011;8501;49.926;8.404;2023-07-29T08:36:00;1.20;;;1.08;;
16766;SDS011;8501;49.926;8.404;2023-07-29T08:38:26;1.70;;;1.23;;
16766;SDS011;8501;49.926;8.404;2023-07-29T08:43:28;1.70;;;1.60;;
16766;SDS011;8501;49.926;8.404;2023-07-29T08:45:56;1.60;;;1.50;;
16766;SDS011;8501;49.926;8.404;2023-07-29T08:48:23;1.70;;;1.60;;
16766;SDS011;8501;49.926;8.404;2023-07-29T08:50:57;1.67;;;1.58;;
16766;SDS011;8501;49.926;8.404;2023-07-29T08:53:25;1.95;;;1.50;;
16766;SDS011;8501;49.926;8.404;2023-07-29T08:55:52;1.38;;;1.20;;
16766;SDS011;8501;49.926;8.404;2023-07-29T08:58:18;2.83;;;1.65;;
16766;SDS011;8501;49.926;8.404;2023-07-29T09:00:44;1.83;;;1.63;;
16766;SDS011;8501;49.926;8.404;2023-07-29T09:03:11;2.28;;;1.60;;
16766;SDS011;8501;49.926;8.404;2023-07-29T09:05:36;1.92;;;1.58;;
16766;SDS011;8501;49.926;8.404;2023-07-29T09:08:02;2.05;;;1.60;;
16766;SDS011;8501;49.926;8.404;2023-07-29T09:10:29;2.85;;;1.73;;
16766;SDS011;8501;49.926;8.404;2023-07-29T09:12:54;1.70;;;1.60;;
16766;SDS011;8501;49.926;8.404;2023-07-29T09:15:27;1.80;;;1.65;;
16766;SDS011;8501;49.926;8.404;2023-07-29T09:17:55;2.08;;;1.77;;
16766;SDS011;8501;49.926;8.404;2023-07-29T09:20:25;2.70;;;1.60;;
16766;SDS011;8501;49.926;8.404;2023-07-29T09:22:58;3.63;;;1.88;;
16766;SDS011;8501;49.926;8.404;2023-07-29T09:25:27;4.55;;;2.10;;
16766;SDS011;8501;49.926;8.404;2023-07-29T09:27:58;2.00;;;1.70;;
16766;SDS011;8501;49.926;8.404;2023-07-29T09:30:25;2.90;;;1.80;;
16766;SDS011;8501;49.926;8.404;2023-07-29T09:32:57;3.97;;;1.92;;
16766;SDS011;8501;49.926;8.404;2023-07-29T09:35:23;2.17;;;1.80;;
16766;SDS011;8501;49.926;8.404;2023-07-29T09:37:51;2.38;;;1.50;;
16766;SDS011;8501;49.926;8.404;2023-07-29T09:40:17;2.28;;;1.60;;
16766;SDS011;8501;49.926;8.404;2023-07-29T09:42:50;1.85;;;1.60;;
16766;SDS011;8501;49.926;8.404;2023-07-29T09:45:26;1.98;;;1.60;;
16766;SDS011;8501;49.926;8.404;2023-07-29T09:47:52;1.98;;;1.65;;
16766;SDS011;8501;49.926;8.404;2023-07-29T09:50:23;1.55;;;1.45;;
16766;SDS011;8501;49.926;8.404;2023-07-29T09:52:49;1.77;;;1.67;;
16766;SDS011;8501;49.926;8.404;2023-07-29T09:55:17;1.80;;;1.55;;
16766;SDS011;8501;49.926;8.404;2023-07-29T09:57:44;2.50;;;1.92;;
16766;SDS011;8501;49.926;8.404;2023-07-29T10:00:10;2.30;;;1.80;;
16766;SDS011;8501;49.926;8.404;2023-07-29T10:02:38;1.77;;;1.67;;
16766;SDS011;8501;49.926;8.404;2023-07-29T10:05:08;2.47;;;1.80;;
16766;SDS011;8501;49.926;8.404;2023-07-29T10:07:38;2.33;;;1.73;;
16766;SDS011;8501;49.926;8.404;2023-07-29T10:10:05;1.85;;;1.63;;
16766;SDS011;8501;49.926;8.404;2023-07-29T10:12:32;3.03;;;1.80;;
16766;SDS011;8501;49.926;8.404;2023-07-29T10:14:59;2.47;;;1.80;;
16766;SDS011;8501;49.926;8.404;2023-07-29T10:17:26;1.90;;;1.80;;
16766;SDS011;8501;49.926;8.404;2023-07-29T10:19:52;3.05;;;1.67;;
16766;SDS011;8501;49.926;8.404;2023-07-29T10:22:20;2.65;;;1.70;;
16766;SDS011;8501;49.926;8.404;2023-07-29T10:24:49;1.73;;;1.63;;
16766;SDS011;8501;49.926;8.404;2023-07-29T10:27:16;2.10;;;1.90;;
16766;SDS011;8501;49.926;8.404;2023-07-29T10:29:44;2.35;;;2.08;;
16766;SDS011;8501;49.926;8.404;2023-07-29T10:32:11;3.10;;;1.98;;
16766;SDS011;8501;49.926;8.404;2023-07-29T10:34:37;2.47;;;1.98;;
16766;SDS011;8501;49.926;8.404;2023-07-29T10:37:04;1.90;;;1.70;;
16766;SDS011;8501;49.926;8.404;2023-07-29T10:39:37;1.90;;;1.77;;
16766;SDS011;8501;49.926;8.404;2023-07-29T10:42:05;4.20;;;2.03;;
16766;SDS011;8501;49.926;8.404;2023-07-29T10:47:15;2.50;;;2.08;;
16766;SDS011;8501;49.926;8.404;2023-07-29T10:49:43;2.40;;;2.10;;
16766;SDS011;8501;49.926;8.404;2023-07-29T10:52:17;1.80;;;1.70;;
16766;SDS011;8501;49.926;8.404;2023-07-29T10:55:02;3.10;;;2.08;;
16766;SDS011;8501;49.926;8.404;2023-07-29T10:57:35;2.25;;;1.63;;
16766;SDS011;8501;49.926;8.404;2023-07-29T11:00:06;2.20;;;1.60;;
16766;SDS011;8501;49.926;8.404;2023-07-29T11:02:34;2.15;;;1.90;;
16766;SDS011;8501;49.926;8.404;2023-07-29T11:05:41;2.08;;;1.80;;
16766;SDS011;8501;49.926;8.404;2023-07-29T11:08:16;2.10;;;1.90;;
16766;SDS011;8501;49.926;8.404;2023-07-29T11:10:45;2.20;;;2.00;;
16766;SDS011;8501;49.926;8.404;2023-07-29T11:13:26;3.13;;;2.15;;
16766;SDS011;8501;49.926;8.404;2023-07-29T11:15:55;2.55;;;1.95;;
16766;SDS011;8501;49.926;8.404;2023-07-29T11:18:24;2.20;;;2.00;;
16766;SDS011;8501;49.926;8.404;2023-07-29T11:20:53;2.63;;;2.03;;
16766;SDS011;8501;49.926;8.404;2023-07-29T11:23:19;2.58;;;2.00;;
16766;SDS011;8501;49.926;8.404;2023-07-29T11:25:45;2.92;;;2.00;;
16766;SDS011;8501;49.926;8.404;2023-07-29T11:28:11;2.50;;;1.90;;
16766;SDS011;8501;49.926;8.404;2023-07-29T11:30:39;4.53;;;2.10;;
16766;SDS011;8501;49.926;8.404;2023-07-29T11:33:04;2.42;;;2.13;;
16766;SDS011;8501;49.926;8.404;2023-07-29T11:35:31;2.45;;;2.25;;
16766;SDS011;8501;49.926;8.404;2023-07-29T11:37:57;3.00;;;2.30;;
16766;SDS011;8501;49.926;8.404;2023-07-29T11:40:23;3.28;;;2.22;;
16766;SDS011;8501;49.926;8.404;2023-07-29T11:42:50;2.42;;;2.10;;
16766;SDS011;8501;49.926;8.404;2023-07-29T11:45:17;2.40;;;2.00;;
16766;SDS011;8501;49.926;8.404;2023-07-29T11:47:43;2.08;;;1.85;;
16766;SDS011;8501;49.926;8.404;2023-07-29T11:50:10;5.22;;;1.88;;
16766;SDS011;8501;49.926;8.404;2023-07-29T11:52:39;2.30;;;2.08;;
16766;SDS011;8501;49.926;8.404;2023-07-29T11:55:06;3.20;;;2.00;;
16766;SDS011;8501;49.926;8.404;2023-07-29T11:57:33;3.17;;;2.00;;
16766;SDS011;8501;49.926;8.404;2023-07-29T12:00:04;3.00;;;1.95;;
16766;SDS011;8501;49.926;8.404;2023-07-29T12:02:31;2.88;;;2.00;;
16766;SDS011;8501;49.926;8.404;2023-07-29T12:04:57;1.77;;;1.67;;
16766;SDS011;8501;49.926;8.404;2023-07-29T12:07:24;1.98;;;1.83;;
16766;SDS011;8501;49.926;8.404;2023-07-29T12:09:50;1.80;;;1.70;;
16766;SDS011;8501;49.926;8.404;2023-07-29T12:12:17;1.92;;;1.75;;
16766;SDS011;8501;49.926;8.404;2023-07-29T12:14:46;3.78;;;1.63;;
16766;SDS011;8501;49.926;8.404;2023-07-29T12:17:11;2.95;;;1.80;;
16766;SDS011;8501;49.926;8.404;2023-07-29T12:19:38;3.45;;;1.60;;
16766;SDS011;8501;49.926;8.404;2023-07-29T12:22:06;1.73;;;1.55;;
16766;SDS011;8501;49.926;8.404;2023-07-29T12:24:33;3.13;;;1.80;;
16766;SDS011;8501;49.926;8.404;2023-07-29T12:27:01;3.45;;;1.80;;
16766;SDS011;8501;49.926;8.404;2023-07-29T12:29:27;5.03;;;1.60;;
16766;SDS011;8501;49.926;8.404;2023-07-29T12:31:59;1.90;;;1.60;;
16766;SDS011;8501;49.926;8.404;2023-07-29T12:34:27;2.10;;;1.77;;
16766;SDS011;8501;49.926;8.404;2023-07-29T12:36:54;2.10;;;1.60;;
16766;SDS011;8501;49.926;8.404;2023-07-29T12:39:28;3.25;;;1.70;;
16766;SDS011;8501;49.926;8.404;2023-07-29T12:41:55;2.53;;;1.80;;
16766;SDS011;8501;49.926;8.404;2023-07-29T12:44:23;1.95;;;1.50;;
16766;SDS011;8501;49.926;8.404;2023-07-29T12:46:49;3.30;;;1.80;;
16766;SDS011;8501;49.926;8.404;2023-07-29T12:49:15;1.80;;;1.38;;
16766;SDS011;8501;49.926;8.404;2023-07-29T12:51:41;3.10;;;1.73;;
16766;SDS011;8501;49.926;8.404;2023-07-29T12:54:06;1.75;;;1.63;;
16766;SDS011;8501;49.926;8.404;2023-07-29T12:56:32;1.80;;;1.70;;
16766;SDS011;8501;49.926;8.404;2023-07-29T12:58:58;4.35;;;1.63;;
16766;SDS011;8501;49.926;8.404;2023-07-29T13:01:25;1.65;;;1.52;;
16766;SDS011;8501;49.926;8.404;2023-07-29T13:03:51;2.28;;;1.50;;
16766;SDS011;8501;49.926;8.404;2023-07-29T13:06:17;2.60;;;2.10;;
16766;SDS011;8501;49.926;8.404;2023-07-29T13:08:43;4.03;;;1.65;;
16766;SDS011;8501;49.926;8.404;2023-07-29T13:11:10;2.53;;;1.85;;
16766;SDS011;8501;49.926;8.404;2023-07-29T13:13:36;2.17;;;1.58;;
16766;SDS011;8501;49.926;8.404;2023-07-29T13:16:01;29.10;;;26.92;;
16766;SDS011;8501;49.926;8.404;2023-07-29T13:18:27;3.03;;;1.90;;
16766;SDS011;8501;49.926;8.404;2023-07-29T13:20:53;2.13;;;1.92;;
16766;SDS011;8501;49.926;8.404;2023-07-29T13:23:19;3.00;;;1.52;;
16766;SDS011;8501;49.926;8.404;2023-07-29T13:25:45;3.92;;;2.08;;
16766;SDS011;8501;49.926;8.404;2023-07-29T13:28:11;1.90;;;1.75;;
16766;SDS011;8501;49.926;8.404;2023-07-29T13:30:38;1.95;;;1.67;;
16766;SDS011;8501;49.926;8.404;2023-07-29T13:33:06;2.15;;;1.80;;
16766;SDS011;8501;49.926;8.404;2023-07-29T13:35:32;1.90;;;1.70;;
16766;SDS011;8501;49.926;8.404;2023-07-29T13:37:58;2.05;;;1.73;;
16766;SDS011;8501;49.926;8.404;2023-07-29T13:40:24;1.63;;;1.52;;
16766;SDS011;8501;49.926;8.404;2023-07-29T13:42:50;4.00;;;2.10;;
16766;SDS011;8501;49.926;8.404;2023-07-29T13:45:16;2.35;;;1.83;;
16766;SDS011;8501;49.926;8.404;2023-07-29T13:47:42;2.92;;;1.85;;
16766;SDS011;8501;49.926;8.404;2023-07-29T13:50:08;1.98;;;1.50;;
16766;SDS011;8501;49.926;8.404;2023-07-29T13:52:33;2.28;;;1.63;;
16766;SDS011;8501;49.926;8.404;2023-07-29T13:54:59;2.45;;;1.55;;
16766;SDS011;8501;49.926;8.404;2023-07-29T13:57:25;1.70;;;1.60;;
16766;SDS011;8501;49.926;8.404;2023-07-29T13:59:50;2.30;;;1.55;;
16766;SDS011;8501;49.926;8.404;2023-07-29T14:02:16;2.00;;;1.80;;
16766;SDS011;8501;49.926;8.404;2023-07-29T14:04:41;2.13;;;1.70;;
16766;SDS011;8501;49.926;8.404;2023-07-29T14:07:07;4.72;;;2.00;;
16766;SDS011;8501;49.926;8.404;2023-07-29T14:09:32;1.92;;;1.70;;
16766;SDS011;8501;49.926;8.404;2023-07-29T14:11:58;1.60;;;1.50;;
16766;SDS011;8501;49.926;8.404;2023-07-29T14:14:23;2.38;;;1.42;;
16766;SDS011;8501;49.926;8.404;2023-07-29T14:16:49;2.00;;;1.70;;
16766;SDS011;8501;49.926;8.404;2023-07-29T14:19:14;1.90;;;1.70;;
16766;SDS011;8501;49.926;8.404;2023-07-29T14:21:40;1.60;;;1.50;;
16766;SDS011;8501;49.926;8.404;2023-07-29T14:24:06;1.90;;;1.70;;
16766;SDS011;8501;49.926;8.404;2023-07-29T14:26:31;2.22;;;1.70;;
16766;SDS011;8501;49.926;8.404;2023-07-29T14:28:57;3.25;;;1.90;;
16766;SDS011;8501;49.926;8.404;2023-07-29T14:31:23;2.00;;;1.80;;
16766;SDS011;8501;49.926;8.404;2023-07-29T14:33:48;1.65;;;1.55;;
16766;SDS011;8501;49.926;8.404;2023-07-29T14:36:14;1.83;;;1.50;;
16766;SDS011;8501;49.926;8.404;2023-07-29T14:38:40;1.83;;;1.60;;
16766;SDS011;8501;49.926;8.404;2023-07-29T14:41:06;1.90;;;1.80;;
16766;SDS011;8501;49.926;8.404;2023-07-29T14:43:34;3.25;;;1.63;;
16766;SDS011;8501;49.926;8.404;2023-07-29T14:46:00;3.50;;;2.03;;
16766;SDS011;8501;49.926;8.404;2023-07-29T14:48:26;2.17;;;1.90;;
16766;SDS011;8501;49.926;8.404;2023-07-29T14:50:52;2.30;;;1.92;;
16766;SDS011;8501;49.926;8.404;2023-07-29T14:53:17;2.15;;;1.77;;
16766;SDS011;8501;49.926;8.404;2023-07-29T14:55:43;1.75;;;1.58;;
16766;SDS011;8501;49.926;8.404;2023-07-29T14:58:09;2.05;;;1.67;;
16766;SDS011;8501;49.926;8.404;2023-07-29T15:00:34;1.90;;;1.65;;
16766;SDS011;8501;49.926;8.404;2023-07-29T15:03:00;2.38;;;1.77;;
16766;SDS011;8501;49.926;8.404;2023-07-29T15:05:26;2.60;;;2.00;;
16766;SDS011;8501;49.926;8.404;2023-07-29T15:07:51;1.95;;;1.60;;